sensor_id;sensor_type;location;lat;lon;timestamp;pressure;altitude;pressure_sealevel;temperature;humidity
78170;BME280;67412;49.892;14.490;2023-10-19T00:01:47;96152.81;;;1.32;100.00
78170;BME280;67412;49.892;14.490;2023-10-19T00:04:12;96137.63;;;1.32;100.00
78170;BME280;67412;49.892;14.490;2023-10-19T00:06:38;96133.44;;;1.34;100.00
78170;BME280;67412;49.892;14.490;2023-10-19T00:09:05;96128.38;;;1.48;100.00
78170;BME280;67412;49.892;14.490;2023-10-19T00:11:36;96108.16;;;1.54;100.00
78170;BME280;67412;49.892;14.490;2023-10-19T00:14:01;96110.69;;;1.66;100.00
78170;BME280;67412;49.892;14.490;2023-10-19T00:16:28;96113.25;;;1.79;100.00
78170;BME280;67412;49.892;14.490;2023-10-19T00:19:00;96100.56;;;1.88;100.00
78170;BME280;67412;49.892;14.490;2023-10-19T00:21:26;96093.84;;;1.87;100.00
78170;BME280;67412;49.892;14.490;2023-10-19T00:23:57;96084.53;;;1.80;100.00
78170;BME280;67412;49.892;14.490;2023-10-19T00:26:26;96088.75;;;1.89;100.00
78170;BME280;67412;49.892;14.490;2023-10-19T00:28:52;96082.84;;;1.96;100.00
78170;BME280;67412;49.892;14.490;2023-10-19T00:31:20;96088.75;;;2.04;100.00
78170;BME280;67412;49.892;14.490;2023-10-19T00:33:46;96097.16;;;2.11;100.00
78170;BME280;67412;49.892;14.490;2023-10-19T00:36:11;96097.16;;;2.14;100.00
78170;BME280;67412;49.892;14.490;2023-10-19T00:38:41;96094.63;;;2.30;100.00
78170;BME280;67412;49.892;14.490;2023-10-19T00:41:23;96101.38;;;2.25;100.00
78170;BME280;67412;49.892;14.490;2023-10-19T00:43:55;96099.69;;;2.27;100.00
78170;BME280;67412;49.892;14.490;2023-10-19T00:46:35;96097.16;;;2.32;100.00
78170;BME280;67412;49.892;14.490;2023-10-19T00:49:05;96099.66;;;2.36;100.00
78170;BME280;67412;49.892;14.490;2023-10-19T00:51:42;96102.16;;;2.44;100.00
78170;BME280;67412;49.892;14.490;2023-10-19T00:54:21;96091.19;;;2.50;100.00
78170;BME280;67412;49.892;14.490;2023-10-19T00:56:59;96085.28;;;2.49;100.00
78170;BME280;67412;49.892;14.490;2023-10-19T00:59:33;96079.38;;;2.55;100.00
78170;BME280;67412;49.892;14.490;2023-10-19T01:02:08;96079.38;;;2.55;100.00
78170;BME280;67412;49.892;14.490;2023-10-19T01:04:44;96080.22;;;2.49;100.00
78170;BME280;67412;49.892;14.490;2023-10-19T01:07:11;96075.97;;;2.48;100.00
78170;BME280;67412;49.892;14.490;2023-10-19T01:10:03;96070.94;;;2.42;100.00
78170;BME280;67412;49.892;14.490;2023-10-19T01:12:33;96070.94;;;2.45;100.00
78170;BME280;67412;49.892;14.490;2023-10-19T01:15:05;96065.84;;;2.51;100.00
78170;BME280;67412;49.892;14.490;2023-10-19T01:17:36;96057.38;;;2.57;100.00
78170;BME280;67412;49.892;14.490;2023-10-19T01:20:12;96060.75;;;2.60;100.00
78170;BME280;67412;49.892;14.490;2023-10-19T01:23:02;96050.56;;;2.71;100.00
78170;BME280;67412;49.892;14.490;2023-10-19T01:28:17;96050.50;;;2.78;100.00
78170;BME280;67412;49.892;14.490;2023-10-19T01:30:44;96056.41;;;2.86;100.00
78170;BME280;67412;49.892;14.490;2023-10-19T01:33:10;96049.59;;;2.96;100.00
78170;BME280;67412;49.892;14.490;2023-10-19T01:35:39;96051.22;;;3.09;100.00
78170;BME280;67412;49.892;14.490;2023-10-19T01:38:23;96044.41;;;3.17;100.00
78170;BME280;67412;49.892;14.490;2023-10-19T01:40:49;96052.81;;;3.24;100.00
78170;BME280;67412;49.892;14.490;2023-10-19T01:43:16;96055.31;;;3.28;100.00
78170;BME280;67412;49.892;14.490;2023-10-19T01:45:52;96056.03;;;3.47;100.00
78170;BME280;67412;49.892;14.490;2023-10-19T01:48:20;96061.06;;;3.53;100.00
78170;BME280;67412;49.892;14.490;2023-10-19T01:50:48;96055.09;;;3.63;100.00
78170;BME280;67412;49.892;14.490;2023-10-19T01:53:16;96051.53;;;3.81;100.00
78170;BME280;67412;49.892;14.490;2023-10-19T01:55:43;96056.47;;;4.01;100.00
78170;BME280;67412;49.892;14.490;2023-10-19T01:58:09;96049.50;;;4.19;100.00
78170;BME280;67412;49.892;14.490;2023-10-19T02:00:35;96045.34;;;4.09;100.00
78170;BME280;67412;49.892;14.490;2023-10-19T02:03:06;96033.63;;;3.95;100.00
78170;BME280;67412;49.892;14.490;2023-10-19T02:05:33;96031.13;;;3.93;100.00
78170;BME280;67412;49.892;14.490;2023-10-19T02:08:06;96016.72;;;3.90;100.00
78170;BME280;67412;49.892;14.490;2023-10-19T02:10:33;96016.72;;;3.90;100.00
78170;BME280;67412;49.892;14.490;2023-10-19T02:12:59;96013.38;;;3.88;100.00
78170;BME280;67412;49.892;14.490;2023-10-19T02:15:24;96016.72;;;3.94;100.00
78170;BME280;67412;49.892;14.490;2023-10-19T02:17:49;96008.16;;;4.04;100.00
78170;BME280;67412;49.892;14.490;2023-10-19T02:20:15;95995.44;;;4.02;100.00
78170;BME280;67412;49.892;14.490;2023-10-19T02:22:42;95996.19;;;4.13;100.00
78170;BME280;67412;49.892;14.490;2023-10-19T02:25:08;95976.72;;;4.12;100.00
78170;BME280;67412;49.892;14.490;2023-10-19T02:27:35;95956.38;;;4.15;100.00
78170;BME280;67412;49.892;14.490;2023-10-19T02:30:01;95944.50;;;4.14;100.00
78170;BME280;67412;49.892;14.490;2023-10-19T02:32:27;95925.91;;;4.11;100.00
78170;BME280;67412;49.892;14.490;2023-10-19T02:34:52;95930.09;;;4.15;100.00
78170;BME280;67412;49.892;14.490;2023-10-19T02:37:18;95920.66;;;4.26;100.00
78170;BME280;67412;49.892;14.490;2023-10-19T02:39:43;95926.53;;;4.31;100.00
78170;BME280;67412;49.892;14.490;2023-10-19T02:42:09;95934.88;;;4.42;100.00
78170;BME280;67412;49.892;14.490;2023-10-19T02:44:34;95933.09;;;4.47;100.00
78170;BME280;67412;49.892;14.490;2023-10-19T02:46:59;95922.91;;;4.47;100.00
78170;BME280;67412;49.892;14.490;2023-10-19T02:49:27;95927.94;;;4.52;100.00
78170;BME280;67412;49.892;14.490;2023-10-19T02:51:53;95921.97;;;4.54;100.00
78170;BME280;67412;49.892;14.490;2023-10-19T02:54:23;95931.28;;;4.55;100.00
78170;BME280;67412;49.892;14.490;2023-10-19T02:56:53;95924.69;;;4.42;100.00
78170;BME280;67412;49.892;14.490;2023-10-19T02:59:23;95914.81;;;4.16;100.00
78170;BME280;67412;49.892;14.490;2023-10-19T03:01:53;95921.09;;;3.89;100.00
78170;BME280;67412;49.892;14.490;2023-10-19T03:04:33;95910.31;;;3.66;100.00
78170;BME280;67412;49.892;14.490;2023-10-19T03:07:02;95904.47;;;3.58;100.00
78170;BME280;67412;49.892;14.490;2023-10-19T03:09:29;95901.19;;;3.46;100.00
78170;BME280;67412;49.892;14.490;2023-10-19T03:11:56;95903.91;;;3.29;100.00
78170;BME280;67412;49.892;14.490;2023-10-19T03:14:29;95920.91;;;3.22;100.00
78170;BME280;67412;49.892;14.490;2023-10-19T03:16:54;95913.28;;;3.19;100.00
78170;BME280;67412;49.892;14.490;2023-10-19T03:19:20;95917.56;;;3.11;100.00
78170;BME280;67412;49.892;14.490;2023-10-19T03:21:46;95911.66;;;3.14;100.00
78170;BME280;67412;49.892;14.490;2023-10-19T03:24:14;95901.50;;;3.14;100.00
78170;BME280;67412;49.892;14.490;2023-10-19T03:26:59;95892.97;;;3.22;100.00
78170;BME280;67412;49.892;14.490;2023-10-19T03:29:25;95894.59;;;3.28;100.00
78170;BME280;67412;49.892;14.490;2023-10-19T03:31:57;95881.91;;;3.28;100.00
78170;BME280;67412;49.892;14.490;2023-10-19T03:34:24;95870.19;;;3.18;100.00
78170;BME280;67412;49.892;14.490;2023-10-19T03:36:50;95868.44;;;3.24;100.00
78170;BME280;67412;49.892;14.490;2023-10-19T03:39:19;95872.66;;;3.25;100.00
78170;BME280;67412;49.892;14.490;2023-10-19T03:41:46;95869.28;;;3.23;100.00
78170;BME280;67412;49.892;14.490;2023-10-19T03:44:11;95869.31;;;3.22;100.00
78170;BME280;67412;49.892;14.490;2023-10-19T03:46:49;95862.34;;;3.37;100.00
78170;BME280;67412;49.892;14.490;2023-10-19T03:49:26;95857.41;;;3.27;100.00
78170;BME280;67412;49.892;14.490;2023-10-19T03:51:55;95841.25;;;3.34;100.00
78170;BME280;67412;49.892;14.490;2023-10-19T03:54:25;95837.09;;;3.27;100.00
78170;BME280;67412;49.892;14.490;2023-10-19T03:56:52;95839.66;;;3.24;100.00
78170;BME280;67412;49.892;14.490;2023-10-19T03:59:18;95834.44;;;3.39;100.00
78170;BME280;67412;49.892;14.490;2023-10-19T04:01:44;95831.81;;;3.47;100.00
78170;BME280;67412;49.892;14.490;2023-10-19T04:04:10;95830.97;;;3.46;100.00
78170;BME280;67412;49.892;14.490;2023-10-19T04:06:36;95825.94;;;3.41;100.00
78170;BME280;67412;49.892;14.490;2023-10-19T04:09:02;95819.94;;;3.52;100.00
78170;BME280;67412;49.892;14.490;2023-10-19T04:11:30;95826.75;;;3.45;100.00
78170;BME280;67412;49.892;14.490;2023-10-19T04:14:13;95816.63;;;3.44;100.00
78170;BME280;67412;49.892;14.490;2023-10-19T04:16:40;95813.25;;;3.41;100.00
78170;BME280;67412;49.892;14.490;2023-10-19T04:19:08;95814.97;;;3.41;100.00
78170;BME280;67412;49.892;14.490;2023-10-19T04:21:34;95827.63;;;3.44;100.00
78170;BME280;67412;49.892;14.490;2023-10-19T04:24:04;95820.75;;;3.55;100.00
78170;BME280;67412;49.892;14.490;2023-10-19T04:26:29;95812.25;;;3.56;100.00
78170;BME280;67412;49.892;14.490;2023-10-19T04:29:02;95818.97;;;3.63;100.00
78170;BME280;67412;49.892;14.490;2023-10-19T04:31:35;95817.31;;;3.58;100.00
78170;BME280;67412;49.892;14.490;2023-10-19T04:34:03;95808.84;;;3.57;100.00
78170;BME280;67412;49.892;14.490;2023-10-19T04:36:33;95805.56;;;3.51;100.00
78170;BME280;67412;49.892;14.490;2023-10-19T04:38:59;95806.44;;;3.47;100.00
78170;BME280;67412;49.892;14.490;2023-10-19T04:41:25;95797.94;;;3.49;100.00
78170;BME280;67412;49.892;14.490;2023-10-19T04:43:53;95793.81;;;3.40;100.00
78170;BME280;67412;49.892;14.490;2023-10-19T04:46:19;95796.38;;;3.39;100.00
78170;BME280;67412;49.892;14.490;2023-10-19T04:48:45;95790.38;;;3.46;100.00
78170;BME280;67412;49.892;14.490;2023-10-19T04:51:10;95790.22;;;3.58;100.00
78170;BME280;67412;49.892;14.490;2023-10-19T04:53:37;95783.41;;;3.60;100.00
78170;BME280;67412;49.892;14.490;2023-10-19T04:56:07;95784.31;;;3.56;100.00
78170;BME280;67412;49.892;14.490;2023-10-19T04:58:34;95778.34;;;3.60;100.00
78170;BME280;67412;49.892;14.490;2023-10-19T05:01:00;95784.97;;;3.72;100.00
78170;BME280;67412;49.892;14.490;2023-10-19T05:03:26;95774.66;;;3.84;100.00
78170;BME280;67412;49.892;14.490;2023-10-19T05:05:53;95779.66;;;3.92;100.00
78170;BME280;67412;49.892;14.490;2023-10-19T05:08:19;95772.88;;;3.94;100.00
78170;BME280;67412;49.892;14.490;2023-10-19T05:10:45;95766.97;;;3.90;100.00
78170;BME280;67412;49.892;14.490;2023-10-19T05:13:12;95763.50;;;3.94;100.00
78170;BME280;67412;49.892;14.490;2023-10-19T05:15:37;95767.63;;;4.03;100.00
78170;BME280;67412;49.892;14.490;2023-10-19T05:18:03;95769.31;;;4.04;100.00
78170;BME280;67412;49.892;14.490;2023-10-19T05:20:29;95770.31;;;3.94;100.00
78170;BME280;67412;49.892;14.490;2023-10-19T05:22:55;95771.13;;;3.94;100.00
78170;BME280;67412;49.892;14.490;2023-10-19T05:25:20;95770.34;;;3.92;100.00
78170;BME280;67412;49.892;14.490;2023-10-19T05:27:48;95776.91;;;4.05;100.00
78170;BME280;67412;49.892;14.490;2023-10-19T05:30:14;95779.41;;;4.10;100.00
78170;BME280;67412;49.892;14.490;2023-10-19T05:32:39;95759.81;;;4.16;100.00
78170;BME280;67412;49.892;14.490;2023-10-19T05:35:05;95756.41;;;4.19;100.00
78170;BME280;67412;49.892;14.490;2023-10-19T05:37:31;95755.44;;;4.26;100.00
78170;BME280;67412;49.892;14.490;2023-10-19T05:39:56;95745.13;;;4.35;100.00
78170;BME280;67412;49.892;14.490;2023-10-19T05:42:22;95762.06;;;4.36;100.00
78170;BME280;67412;49.892;14.490;2023-10-19T05:44:47;95772.91;;;4.47;100.00
78170;BME280;67412;49.892;14.490;2023-10-19T05:47:13;95770.31;;;4.50;100.00
78170;BME280;67412;49.892;14.490;2023-10-19T05:49:38;95762.72;;;4.49;100.00
78170;BME280;67412;49.892;14.490;2023-10-19T05:52:03;95757.53;;;4.55;100.00
78170;BME280;67412;49.892;14.490;2023-10-19T05:54:28;95757.47;;;4.58;100.00
78170;BME280;67412;49.892;14.490;2023-10-19T05:56:54;95759.09;;;4.63;100.00
78170;BME280;67412;49.892;14.490;2023-10-19T05:59:19;95749.59;;;4.74;100.00
78170;BME280;67412;49.892;14.490;2023-10-19T06:01:45;95750.44;;;4.75;100.00
78170;BME280;67412;49.892;14.490;2023-10-19T06:04:13;95750.25;;;4.84;100.00
78170;BME280;67412;49.892;14.490;2023-10-19T06:06:39;95752.66;;;4.92;100.00
78170;BME280;67412;49.892;14.490;2023-10-19T06:09:08;95747.50;;;4.98;100.00
78170;BME280;67412;49.892;14.490;2023-10-19T06:11:36;95738.81;;;5.08;100.00
78170;BME280;67412;49.892;14.490;2023-10-19T06:14:07;95727.84;;;5.04;100.00
78170;BME280;67412;49.892;14.490;2023-10-19T06:16:33;95729.63;;;5.01;100.00
78170;BME280;67412;49.892;14.490;2023-10-19T06:18:59;95728.00;;;4.95;100.00
78170;BME280;67412;49.892;14.490;2023-10-19T06:21:24;95728.84;;;4.96;100.00
78170;BME280;67412;49.892;14.490;2023-10-19T06:23:50;95726.28;;;4.97;100.00
78170;BME280;67412;49.892;14.490;2023-10-19T06:26:15;95730.69;;;4.89;100.00
78170;BME280;67412;49.892;14.490;2023-10-19T06:28:41;95739.22;;;4.86;100.00
78170;BME280;67412;49.892;14.490;2023-10-19T06:31:06;95741.75;;;4.85;100.00
78170;BME280;67412;49.892;14.490;2023-10-19T06:33:32;95735.06;;;4.81;100.00
78170;BME280;67412;49.892;14.490;2023-10-19T06:36:02;95729.16;;;4.79;100.00
78170;BME280;67412;49.892;14.490;2023-10-19T06:38:29;95722.47;;;4.73;100.00
78170;BME280;67412;49.892;14.490;2023-10-19T06:40:54;95720.06;;;4.66;100.00
78170;BME280;67412;49.892;14.490;2023-10-19T06:43:19;95721.03;;;4.59;100.00
78170;BME280;67412;49.892;14.490;2023-10-19T06:45:49;95728.03;;;4.46;100.00
78170;BME280;67412;49.892;14.490;2023-10-19T06:48:15;95733.97;;;4.44;100.00
78170;BME280;67412;49.892;14.490;2023-10-19T06:50:40;95728.03;;;4.46;100.00
78170;BME280;67412;49.892;14.490;2023-10-19T06:53:05;95728.69;;;4.57;100.00
78170;BME280;67412;49.892;14.490;2023-10-19T06:55:31;95745.34;;;4.75;100.00
78170;BME280;67412;49.892;14.490;2023-10-19T06:57:56;95753.59;;;4.87;100.00
78170;BME280;67412;49.892;14.490;2023-10-19T07:00:23;95749.97;;;5.01;100.00
78170;BME280;67412;49.892;14.490;2023-10-19T07:02:52;95733.78;;;5.05;100.00
78170;BME280;67412;49.892;14.490;2023-10-19T07:05:19;95732.03;;;5.07;100.00
78170;BME280;67412;49.892;14.490;2023-10-19T07:07:47;95739.78;;;5.01;100.00
78170;BME280;67412;49.892;14.490;2023-10-19T07:10:14;95730.31;;;5.09;100.00
78170;BME280;67412;49.892;14.490;2023-10-19T07:12:47;95729.47;;;5.10;100.00
78170;BME280;67412;49.892;14.490;2023-10-19T07:15:14;95734.50;;;5.11;100.00
78170;BME280;67412;49.892;14.490;2023-10-19T07:17:43;95739.38;;;5.23;100.00
78170;BME280;67412;49.892;14.490;2023-10-19T07:20:11;95734.28;;;5.22;100.00
78170;BME280;67412;49.892;14.490;2023-10-19T07:22:50;95727.34;;;5.31;100.00
78170;BME280;67412;49.892;14.490;2023-10-19T07:25:16;95727.03;;;5.47;100.00
78170;BME280;67412;49.892;14.490;2023-10-19T07:27:45;95725.91;;;5.60;100.00
78170;BME280;67412;49.892;14.490;2023-10-19T07:30:11;95725.69;;;5.70;100.00
78170;BME280;67412;49.892;14.490;2023-10-19T07:32:40;95726.38;;;5.78;100.00
78170;BME280;67412;49.892;14.490;2023-10-19T07:35:06;95718.50;;;5.91;100.00
78170;BME280;67412;49.892;14.490;2023-10-19T07:37:31;95709.66;;;6.07;100.00
78170;BME280;67412;49.892;14.490;2023-10-19T07:39:56;95702.78;;;6.09;100.00
78170;BME280;67412;49.892;14.490;2023-10-19T07:42:23;95695.13;;;6.10;100.00
78170;BME280;67412;49.892;14.490;2023-10-19T07:44:48;95690.88;;;6.11;100.00
78170;BME280;67412;49.892;14.490;2023-10-19T07:47:14;95700.63;;;6.29;100.00
78170;BME280;67412;49.892;14.490;2023-10-19T07:49:40;95692.94;;;6.30;100.00
78170;BME280;67412;49.892;14.490;2023-10-19T07:52:06;95686.63;;;6.45;100.00
78170;BME280;67412;49.892;14.490;2023-10-19T07:54:36;95680.09;;;6.67;100.00
78170;BME280;67412;49.892;14.490;2023-10-19T07:57:02;95676.56;;;6.73;100.00
78170;BME280;67412;49.892;14.490;2023-10-19T07:59:34;95679.03;;;6.76;100.00
78170;BME280;67412;49.892;14.490;2023-10-19T08:02:00;95685.53;;;6.55;100.00
78170;BME280;67412;49.892;14.490;2023-10-19T08:04:30;95686.88;;;6.70;100.00
78170;BME280;67412;49.892;14.490;2023-10-19T08:06:56;95700.56;;;6.66;100.00
78170;BME280;67412;49.892;14.490;2023-10-19T08:09:22;95721.72;;;6.71;100.00
78170;BME280;67412;49.892;14.490;2023-10-19T08:11:51;95709.84;;;6.68;100.00
78170;BME280;67412;49.892;14.490;2023-10-19T08:14:27;95701.16;;;6.75;100.00
78170;BME280;67412;49.892;14.490;2023-10-19T08:16:53;95697.66;;;6.79;100.00
78170;BME280;67412;49.892;14.490;2023-10-19T08:19:18;95702.75;;;6.81;100.00
78170;BME280;67412;49.892;14.490;2023-10-19T08:21:45;95707.03;;;6.79;100.00
78170;BME280;67412;49.892;14.490;2023-10-19T08:24:10;95697.78;;;6.75;100.00
78170;BME280;67412;49.892;14.490;2023-10-19T08:26:41;95711.44;;;6.72;100.00
78170;BME280;67412;49.892;14.490;2023-10-19T08:29:08;95716.94;;;6.57;100.00
78170;BME280;67412;49.892;14.490;2023-10-19T08:31:39;95719.00;;;6.42;100.00
78170;BME280;67412;49.892;14.490;2023-10-19T08:34:05;95719.94;;;6.38;100.00
78170;BME280;67412;49.892;14.490;2023-10-19T08:36:30;95711.16;;;6.49;100.00
78170;BME280;67412;49.892;14.490;2023-10-19T08:38:56;95704.75;;;6.68;100.00
78170;BME280;67412;49.892;14.490;2023-10-19T08:41:22;95703.72;;;6.75;100.00
78170;BME280;67412;49.892;14.490;2023-10-19T08:43:48;95696.69;;;6.85;100.00
78170;BME280;67412;49.892;14.490;2023-10-19T08:46:15;95704.91;;;6.96;100.00
78170;BME280;67412;49.892;14.490;2023-10-19T08:48:40;95698.72;;;7.05;100.00
78170;BME280;67412;49.892;14.490;2023-10-19T08:51:10;95698.53;;;7.11;100.00
78170;BME280;67412;49.892;14.490;2023-10-19T08:53:38;95696.72;;;7.16;100.00
78170;BME280;67412;49.892;14.490;2023-10-19T08:56:09;95689.50;;;7.30;99.82
78170;BME280;67412;49.892;14.490;2023-10-19T08:58:35;95695.16;;;7.41;98.03
78170;BME280;67412;49.892;14.490;2023-10-19T09:01:01;95686.84;;;7.35;95.84
78170;BME280;67412;49.892;14.490;2023-10-19T09:03:32;95677.81;;;7.52;98.06
78170;BME280;67412;49.892;14.490;2023-10-19T09:06:03;95684.06;;;7.71;96.98
78170;BME280;67412;49.892;14.490;2023-10-19T09:08:30;95678.56;;;7.84;96.21
78170;BME280;67412;49.892;14.490;2023-10-19T09:11:06;95669.03;;;7.89;96.27
78170;BME280;67412;49.892;14.490;2023-10-19T09:13:50;95666.78;;;7.80;98.84
78170;BME280;67412;49.892;14.490;2023-10-19T09:16:19;95678.63;;;7.82;98.40
78170;BME280;67412;49.892;14.490;2023-10-19T09:18:45;95673.63;;;7.79;98.83
78170;BME280;67412;49.892;14.490;2023-10-19T09:21:16;95675.19;;;7.83;98.28
78170;BME280;67412;49.892;14.490;2023-10-19T09:23:53;95671.47;;;7.93;98.08
78170;BME280;67412;49.892;14.490;2023-10-19T09:26:20;95681.78;;;7.90;97.17
78170;BME280;67412;49.892;14.490;2023-10-19T09:28:49;95674.75;;;8.24;99.20
78170;BME280;67412;49.892;14.490;2023-10-19T09:31:16;95661.75;;;8.32;96.83
78170;BME280;67412;49.892;14.490;2023-10-19T09:33:43;95666.94;;;8.29;96.50
78170;BME280;67412;49.892;14.490;2023-10-19T09:36:12;95661.38;;;8.16;95.48
78170;BME280;67412;49.892;14.490;2023-10-19T09:38:50;95664.91;;;8.12;95.23
78170;BME280;67412;49.892;14.490;2023-10-19T09:41:20;95667.78;;;8.30;97.29
78170;BME280;67412;49.892;14.490;2023-10-19T09:43:48;95660.56;;;8.14;94.58
78170;BME280;67412;49.892;14.490;2023-10-19T09:48:46;95641.06;;;8.64;95.76
78170;BME280;67412;49.892;14.490;2023-10-19T09:51:13;95646.88;;;8.69;96.51
78170;BME280;67412;49.892;14.490;2023-10-19T09:53:41;95654.97;;;8.57;93.33
78170;BME280;67412;49.892;14.490;2023-10-19T09:56:18;95651.09;;;8.70;92.99
78170;BME280;67412;49.892;14.490;2023-10-19T09:58:47;95659.72;;;8.93;92.10
78170;BME280;67412;49.892;14.490;2023-10-19T10:01:13;95658.72;;;9.21;89.81
78170;BME280;67412;49.892;14.490;2023-10-19T10:03:46;95660.41;;;8.98;90.49
78170;BME280;67412;49.892;14.490;2023-10-19T10:06:17;95645.66;;;9.04;91.69
78170;BME280;67412;49.892;14.490;2023-10-19T10:08:45;95650.75;;;9.04;93.64
78170;BME280;67412;49.892;14.490;2023-10-19T10:11:24;95645.34;;;9.13;90.81
78170;BME280;67412;49.892;14.490;2023-10-19T10:13:52;95642.16;;;9.07;92.71
78170;BME280;67412;49.892;14.490;2023-10-19T10:16:22;95643.38;;;9.20;91.12
78170;BME280;67412;49.892;14.490;2023-10-19T10:18:50;95642.59;;;9.41;92.21
78170;BME280;67412;49.892;14.490;2023-10-19T10:21:18;95645.22;;;9.63;90.50
78170;BME280;67412;49.892;14.490;2023-10-19T10:23:57;95646.13;;;9.62;88.76
78170;BME280;67412;49.892;14.490;2023-10-19T10:26:30;95639.28;;;10.06;91.37
78170;BME280;67412;49.892;14.490;2023-10-19T10:29:15;95625.16;;;10.17;87.30
78170;BME280;67412;49.892;14.490;2023-10-19T10:31:47;95612.59;;;10.10;88.72
78170;BME280;67412;49.892;14.490;2023-10-19T10:37:01;95615.53;;;10.44;86.22
78170;BME280;67412;49.892;14.490;2023-10-19T10:39:28;95617.47;;;10.59;83.33
78170;BME280;67412;49.892;14.490;2023-10-19T10:41:57;95626.78;;;10.20;83.10
78170;BME280;67412;49.892;14.490;2023-10-19T10:44:45;95624.50;;;10.54;84.36
78170;BME280;67412;49.892;14.490;2023-10-19T10:47:16;95615.66;;;10.61;85.88
78170;BME280;67412;49.892;14.490;2023-10-19T10:52:29;95612.25;;;10.41;83.20
78170;BME280;67412;49.892;14.490;2023-10-19T10:54:56;95603.91;;;10.56;82.59
78170;BME280;67412;49.892;14.490;2023-10-19T10:57:21;95589.88;;;10.64;81.70
78170;BME280;67412;49.892;14.490;2023-10-19T11:00:03;95590.88;;;10.81;82.64
78170;BME280;67412;49.892;14.490;2023-10-19T11:02:30;95588.91;;;11.06;83.16
78170;BME280;67412;49.892;14.490;2023-10-19T11:04:55;95584.41;;;11.67;81.85
78170;BME280;67412;49.892;14.490;2023-10-19T11:07:20;95580.38;;;11.99;78.87
78170;BME280;67412;49.892;14.490;2023-10-19T11:09:46;95579.78;;;11.56;80.20
78170;BME280;67412;49.892;14.490;2023-10-19T11:12:13;95573.88;;;11.54;75.97
78170;BME280;67412;49.892;14.490;2023-10-19T11:15:00;95576.84;;;11.45;81.15
78170;BME280;67412;49.892;14.490;2023-10-19T11:17:26;95567.81;;;11.55;80.07
78170;BME280;67412;49.892;14.490;2023-10-19T11:19:56;95550.66;;;11.56;79.68
78170;BME280;67412;49.892;14.490;2023-10-19T11:22:25;95552.53;;;11.71;79.60
78170;BME280;67412;49.892;14.490;2023-10-19T11:24:54;95549.31;;;11.66;77.25
78170;BME280;67412;49.892;14.490;2023-10-19T11:27:27;95550.38;;;11.62;78.29
78170;BME280;67412;49.892;14.490;2023-10-19T11:29:56;95541.59;;;11.85;79.46
78170;BME280;67412;49.892;14.490;2023-10-19T11:32:22;95536.94;;;11.55;78.42
78170;BME280;67412;49.892;14.490;2023-10-19T11:34:50;95537.28;;;11.85;78.10
78170;BME280;67412;49.892;14.490;2023-10-19T11:37:16;95533.06;;;11.66;79.20
78170;BME280;67412;49.892;14.490;2023-10-19T11:39:41;95537.22;;;11.68;79.47
78170;BME280;67412;49.892;14.490;2023-10-19T11:42:07;95536.91;;;11.93;79.48
78170;BME280;67412;49.892;14.490;2023-10-19T11:44:32;95531.84;;;12.08;78.73
78170;BME280;67412;49.892;14.490;2023-10-19T11:46:58;95539.31;;;12.15;78.35
78170;BME280;67412;49.892;14.490;2023-10-19T11:49:23;95542.53;;;12.01;77.88
78170;BME280;67412;49.892;14.490;2023-10-19T11:51:48;95536.84;;;11.94;78.32
78170;BME280;67412;49.892;14.490;2023-10-19T11:54:14;95541.31;;;11.91;79.12
78170;BME280;67412;49.892;14.490;2023-10-19T11:56:39;95543.63;;;11.59;77.91
78170;BME280;67412;49.892;14.490;2023-10-19T11:59:04;95535.38;;;11.53;80.35
78170;BME280;67412;49.892;14.490;2023-10-19T12:01:30;95535.38;;;11.34;81.78
78170;BME280;67412;49.892;14.490;2023-10-19T12:03:55;95537.09;;;11.15;81.93
78170;BME280;67412;49.892;14.490;2023-10-19T12:06:20;95538.63;;;11.19;81.80
78170;BME280;67412;49.892;14.490;2023-10-19T12:08:49;95530.03;;;11.39;80.51
78170;BME280;67412;49.892;14.490;2023-10-19T12:11:14;95540.72;;;11.11;80.70
78170;BME280;67412;49.892;14.490;2023-10-19T12:13:44;95541.16;;;11.39;80.52
78170;BME280;67412;49.892;14.490;2023-10-19T12:16:11;95538.28;;;11.45;82.34
78170;BME280;67412;49.892;14.490;2023-10-19T12:18:46;95534.03;;;11.44;81.52
78170;BME280;67412;49.892;14.490;2023-10-19T12:21:13;95546.34;;;11.56;81.42
78170;BME280;67412;49.892;14.490;2023-10-19T12:23:43;95543.47;;;11.62;79.07
78170;BME280;67412;49.892;14.490;2023-10-19T12:26:08;95544.59;;;11.76;79.47
78170;BME280;67412;49.892;14.490;2023-10-19T12:28:40;95536.88;;;11.76;79.50
78170;BME280;67412;49.892;14.490;2023-10-19T12:31:06;95534.50;;;11.90;80.21
78170;BME280;67412;49.892;14.490;2023-10-19T12:33:37;95527.75;;;11.87;79.49
78170;BME280;67412;49.892;14.490;2023-10-19T12:36:04;95533.88;;;11.85;80.63
78170;BME280;67412;49.892;14.490;2023-10-19T12:38:48;95533.75;;;11.69;79.09
78170;BME280;67412;49.892;14.490;2023-10-19T12:41:14;95525.41;;;11.83;82.01
78170;BME280;67412;49.892;14.490;2023-10-19T12:43:40;95528.13;;;11.97;79.58
78170;BME280;67412;49.892;14.490;2023-10-19T12:46:05;95531.72;;;12.11;81.20
78170;BME280;67412;49.892;14.490;2023-10-19T12:48:33;95524.28;;;12.23;80.16
78170;BME280;67412;49.892;14.490;2023-10-19T12:51:03;95532.09;;;12.21;79.13
78170;BME280;67412;49.892;14.490;2023-10-19T12:53:29;95529.13;;;11.94;78.42
78170;BME280;67412;49.892;14.490;2023-10-19T12:55:54;95525.34;;;11.66;80.95
78170;BME280;67412;49.892;14.490;2023-10-19T12:58:19;95522.78;;;11.66;81.86
78170;BME280;67412;49.892;14.490;2023-10-19T13:00:46;95523.88;;;11.79;82.27
78170;BME280;67412;49.892;14.490;2023-10-19T13:03:13;95523.94;;;11.77;81.23
78170;BME280;67412;49.892;14.490;2023-10-19T13:05:40;95525.34;;;11.84;81.20
78170;BME280;67412;49.892;14.490;2023-10-19T13:08:07;95515.66;;;11.71;81.69